sensor_id;sensor_type;location;lat;lon;timestamp;P1;durP1;ratioP1;P2;durP2;ratioP2
45848;SDS011;31567;54.600;9.842;2024-01-07T00:01:51;3.47;;;1.90;;
45848;SDS011;31567;54.600;9.842;2024-01-07T00:05:30;1.70;;;1.33;;
45848;SDS011;31567;54.600;9.842;2024-01-07T00:09:11;3.38;;;1.80;;
45848;SDS011;31567;54.600;9.842;2024-01-07T00:12:51;3.65;;;1.58;;
45848;SDS011;31567;54.600;9.842;2024-01-07T00:16:31;2.83;;;1.15;;
45848;SDS011;31567;54.600;9.842;2024-01-07T00:20:11;1.83;;;1.33;;
45848;SDS011;31567;54.600;9.842;2024-01-07T00:23:50;3.08;;;1.35;;
45848;SDS011;31567;54.600;9.842;2024-01-07T00:27:30;6.32;;;1.92;;
45848;SDS011;31567;54.600;9.842;2024-01-07T00:31:11;6.68;;;2.40;;
45848;SDS011;31567;54.600;9.842;2024-01-07T00:34:51;4.40;;;2.58;;
45848;SDS011;31567;54.600;9.842;2024-01-07T00:38:30;7.72;;;3.10;;
45848;SDS011;31567;54.600;9.842;2024-01-07T00:42:10;5.82;;;3.28;;
45848;SDS011;31567;54.600;9.842;2024-01-07T00:45:50;4.47;;;2.22;;
45848;SDS011;31567;54.600;9.842;2024-01-07T00:49:29;2.25;;;1.50;;
45848;SDS011;31567;54.600;9.842;2024-01-07T00:53:09;5.05;;;2.83;;
45848;SDS011;31567;54.600;9.842;2024-01-07T00:56:49;4.32;;;1.90;;
45848;SDS011;31567;54.600;9.842;2024-01-07T01:00:29;3.85;;;2.15;;
45848;SDS011;31567;54.600;9.842;2024-01-07T01:04:09;7.10;;;2.42;;
45848;SDS011;31567;54.600;9.842;2024-01-07T01:07:48;4.30;;;2.38;;
45848;SDS011;31567;54.600;9.842;2024-01-07T01:11:28;5.35;;;2.95;;
45848;SDS011;31567;54.600;9.842;2024-01-07T01:15:08;4.80;;;3.03;;
45848;SDS011;31567;54.600;9.842;2024-01-07T01:18:47;5.72;;;2.70;;
45848;SDS011;31567;54.600;9.842;2024-01-07T01:22:27;4.50;;;2.65;;
45848;SDS011;31567;54.600;9.842;2024-01-07T01:26:07;7.63;;;3.10;;
45848;SDS011;31567;54.600;9.842;2024-01-07T01:29:46;3.47;;;2.80;;
45848;SDS011;31567;54.600;9.842;2024-01-07T01:33:26;5.22;;;2.40;;
45848;SDS011;31567;54.600;9.842;2024-01-07T01:37:05;5.00;;;2.50;;
45848;SDS011;31567;54.600;9.842;2024-01-07T01:40:53;3.20;;;2.28;;
45848;SDS011;31567;54.600;9.842;2024-01-07T01:44:33;4.60;;;2.70;;
45848;SDS011;31567;54.600;9.842;2024-01-07T01:48:13;4.50;;;2.20;;
45848;SDS011;31567;54.600;9.842;2024-01-07T01:51:52;3.90;;;2.28;;
45848;SDS011;31567;54.600;9.842;2024-01-07T01:55:32;3.00;;;1.98;;
45848;SDS011;31567;54.600;9.842;2024-01-07T01:59:13;3.60;;;2.15;;
45848;SDS011;31567;54.600;9.842;2024-01-07T02:02:53;5.93;;;3.00;;
45848;SDS011;31567;54.600;9.842;2024-01-07T02:06:33;6.10;;;2.70;;
45848;SDS011;31567;54.600;9.842;2024-01-07T02:10:13;5.07;;;2.53;;
45848;SDS011;31567;54.600;9.842;2024-01-07T02:13:52;6.65;;;2.42;;
45848;SDS011;31567;54.600;9.842;2024-01-07T02:17:32;3.20;;;2.17;;
45848;SDS011;31567;54.600;9.842;2024-01-07T02:21:15;4.88;;;2.40;;
45848;SDS011;31567;54.600;9.842;2024-01-07T02:24:54;4.50;;;2.40;;
45848;SDS011;31567;54.600;9.842;2024-01-07T02:28:34;4.85;;;2.33;;
45848;SDS011;31567;54.600;9.842;2024-01-07T02:32:14;5.30;;;2.47;;
45848;SDS011;31567;54.600;9.842;2024-01-07T02:35:53;3.50;;;2.25;;
45848;SDS011;31567;54.600;9.842;2024-01-07T02:39:33;6.15;;;2.15;;
45848;SDS011;31567;54.600;9.842;2024-01-07T02:43:12;3.78;;;2.10;;
45848;SDS011;31567;54.600;9.842;2024-01-07T02:46:52;4.70;;;2.75;;
45848;SDS011;31567;54.600;9.842;2024-01-07T02:50:32;4.95;;;2.53;;
45848;SDS011;31567;54.600;9.842;2024-01-07T02:54:11;6.78;;;2.63;;
45848;SDS011;31567;54.600;9.842;2024-01-07T02:57:51;4.13;;;2.20;;
45848;SDS011;31567;54.600;9.842;2024-01-07T03:01:30;2.90;;;2.10;;
45848;SDS011;31567;54.600;9.842;2024-01-07T03:05:10;2.95;;;2.20;;
45848;SDS011;31567;54.600;9.842;2024-01-07T03:08:50;3.28;;;2.25;;
45848;SDS011;31567;54.600;9.842;2024-01-07T03:12:29;5.53;;;2.78;;
45848;SDS011;31567;54.600;9.842;2024-01-07T03:16:18;2.13;;;1.85;;
45848;SDS011;31567;54.600;9.842;2024-01-07T03:19:58;4.82;;;2.20;;
45848;SDS011;31567;54.600;9.842;2024-01-07T03:23:38;4.60;;;1.80;;
45848;SDS011;31567;54.600;9.842;2024-01-07T03:27:18;4.28;;;1.85;;
45848;SDS011;31567;54.600;9.842;2024-01-07T03:30:57;3.40;;;1.80;;
45848;SDS011;31567;54.600;9.842;2024-01-07T03:34:38;5.53;;;2.50;;
45848;SDS011;31567;54.600;9.842;2024-01-07T03:38:18;2.42;;;2.10;;
45848;SDS011;31567;54.600;9.842;2024-01-07T03:41:58;3.53;;;1.90;;
45848;SDS011;31567;54.600;9.842;2024-01-07T03:45:37;4.20;;;2.65;;
45848;SDS011;31567;54.600;9.842;2024-01-07T03:49:17;7.10;;;2.60;;
45848;SDS011;31567;54.600;9.842;2024-01-07T03:52:59;5.57;;;2.40;;
45848;SDS011;31567;54.600;9.842;2024-01-07T03:56:39;3.22;;;2.60;;
45848;SDS011;31567;54.600;9.842;2024-01-07T04:00:18;4.78;;;2.90;;
45848;SDS011;31567;54.600;9.842;2024-01-07T04:03:58;5.32;;;3.45;;
45848;SDS011;31567;54.600;9.842;2024-01-07T04:07:38;3.08;;;2.10;;
45848;SDS011;31567;54.600;9.842;2024-01-07T04:11:17;3.70;;;2.30;;
45848;SDS011;31567;54.600;9.842;2024-01-07T04:14:57;5.97;;;2.53;;
45848;SDS011;31567;54.600;9.842;2024-01-07T04:18:36;3.47;;;2.28;;
45848;SDS011;31567;54.600;9.842;2024-01-07T04:22:16;7.38;;;2.88;;
45848;SDS011;31567;54.600;9.842;2024-01-07T04:25:56;4.20;;;2.45;;
45848;SDS011;31567;54.600;9.842;2024-01-07T04:29:36;4.03;;;2.78;;
45848;SDS011;31567;54.600;9.842;2024-01-07T04:33:15;5.82;;;3.17;;
45848;SDS011;31567;54.600;9.842;2024-01-07T04:36:55;5.28;;;3.22;;
45848;SDS011;31567;54.600;9.842;2024-01-07T04:40:34;4.35;;;2.50;;
45848;SDS011;31567;54.600;9.842;2024-01-07T04:44:14;4.60;;;2.70;;
45848;SDS011;31567;54.600;9.842;2024-01-07T04:47:53;3.08;;;2.25;;
45848;SDS011;31567;54.600;9.842;2024-01-07T04:51:33;2.75;;;2.30;;
45848;SDS011;31567;54.600;9.842;2024-01-07T04:55:13;3.95;;;2.50;;
45848;SDS011;31567;54.600;9.842;2024-01-07T04:58:52;4.20;;;2.67;;
45848;SDS011;31567;54.600;9.842;2024-01-07T05:02:32;4.65;;;2.03;;
45848;SDS011;31567;54.600;9.842;2024-01-07T05:06:11;3.08;;;1.95;;
45848;SDS011;31567;54.600;9.842;2024-01-07T05:09:51;2.92;;;2.40;;
45848;SDS011;31567;54.600;9.842;2024-01-07T05:13:31;3.72;;;1.98;;
45848;SDS011;31567;54.600;9.842;2024-01-07T05:17:10;4.75;;;2.10;;
45848;SDS011;31567;54.600;9.842;2024-01-07T05:20:50;2.38;;;1.88;;
45848;SDS011;31567;54.600;9.842;2024-01-07T05:24:30;2.47;;;1.58;;
45848;SDS011;31567;54.600;9.842;2024-01-07T05:28:10;4.50;;;1.75;;
45848;SDS011;31567;54.600;9.842;2024-01-07T05:31:50;3.40;;;1.70;;
45848;SDS011;31567;54.600;9.842;2024-01-07T05:35:29;3.38;;;1.73;;
45848;SDS011;31567;54.600;9.842;2024-01-07T05:39:09;4.80;;;2.25;;
45848;SDS011;31567;54.600;9.842;2024-01-07T05:42:49;3.53;;;1.55;;
45848;SDS011;31567;54.600;9.842;2024-01-07T05:46:29;1.92;;;1.17;;
45848;SDS011;31567;54.600;9.842;2024-01-07T05:50:08;2.08;;;1.67;;
45848;SDS011;31567;54.600;9.842;2024-01-07T05:53:48;2.90;;;1.65;;
45848;SDS011;31567;54.600;9.842;2024-01-07T05:57:28;5.20;;;1.70;;
45848;SDS011;31567;54.600;9.842;2024-01-07T06:01:07;1.95;;;1.20;;
45848;SDS011;31567;54.600;9.842;2024-01-07T06:04:47;4.60;;;1.42;;
45848;SDS011;31567;54.600;9.842;2024-01-07T06:08:27;1.73;;;1.13;;
45848;SDS011;31567;54.600;9.842;2024-01-07T06:12:06;3.00;;;1.48;;
45848;SDS011;31567;54.600;9.842;2024-01-07T06:15:46;1.95;;;1.30;;
45848;SDS011;31567;54.600;9.842;2024-01-07T06:19:25;2.78;;;1.15;;
45848;SDS011;31567;54.600;9.842;2024-01-07T06:23:05;2.63;;;1.30;;
45848;SDS011;31567;54.600;9.842;2024-01-07T06:26:45;4.75;;;1.55;;
45848;SDS011;31567;54.600;9.842;2024-01-07T06:30:24;2.10;;;1.35;;
45848;SDS011;31567;54.600;9.842;2024-01-07T06:34:04;4.28;;;2.08;;
45848;SDS011;31567;54.600;9.842;2024-01-07T06:37:43;2.42;;;1.17;;
45848;SDS011;31567;54.600;9.842;2024-01-07T06:41:24;2.10;;;1.27;;
45848;SDS011;31567;54.600;9.842;2024-01-07T06:45:04;4.07;;;1.15;;
45848;SDS011;31567;54.600;9.842;2024-01-07T06:48:43;6.88;;;2.83;;
45848;SDS011;31567;54.600;9.842;2024-01-07T06:52:23;1.98;;;1.20;;
45848;SDS011;31567;54.600;9.842;2024-01-07T06:56:03;1.50;;;1.25;;
45848;SDS011;31567;54.600;9.842;2024-01-07T06:59:42;3.90;;;1.70;;
45848;SDS011;31567;54.600;9.842;2024-01-07T07:03:22;2.45;;;1.27;;
45848;SDS011;31567;54.600;9.842;2024-01-07T07:07:02;2.75;;;1.20;;
45848;SDS011;31567;54.600;9.842;2024-01-07T07:10:41;1.65;;;0.80;;
45848;SDS011;31567;54.600;9.842;2024-01-07T07:14:21;0.90;;;0.90;;
45848;SDS011;31567;54.600;9.842;2024-01-07T07:18:00;1.17;;;0.93;;
45848;SDS011;31567;54.600;9.842;2024-01-07T07:21:40;0.90;;;0.70;;
45848;SDS011;31567;54.600;9.842;2024-01-07T07:25:20;1.30;;;1.20;;
45848;SDS011;31567;54.600;9.842;2024-01-07T07:28:59;2.20;;;1.10;;
45848;SDS011;31567;54.600;9.842;2024-01-07T07:32:40;1.25;;;1.15;;
45848;SDS011;31567;54.600;9.842;2024-01-07T07:36:20;2.10;;;1.60;;
45848;SDS011;31567;54.600;9.842;2024-01-07T07:40:00;5.35;;;1.73;;
45848;SDS011;31567;54.600;9.842;2024-01-07T07:43:39;2.22;;;1.65;;
45848;SDS011;31567;54.600;9.842;2024-01-07T07:47:19;1.50;;;1.35;;
45848;SDS011;31567;54.600;9.842;2024-01-07T07:50:59;2.70;;;1.65;;
45848;SDS011;31567;54.600;9.842;2024-01-07T07:54:39;2.08;;;1.88;;
45848;SDS011;31567;54.600;9.842;2024-01-07T07:58:18;2.92;;;1.70;;
45848;SDS011;31567;54.600;9.842;2024-01-07T08:01:58;2.42;;;1.70;;
45848;SDS011;31567;54.600;9.842;2024-01-07T08:05:38;3.63;;;1.30;;
45848;SDS011;31567;54.600;9.842;2024-01-07T08:09:20;4.80;;;1.85;;
45848;SDS011;31567;54.600;9.842;2024-01-07T08:13:00;4.93;;;1.50;;
45848;SDS011;31567;54.600;9.842;2024-01-07T08:16:40;4.97;;;1.52;;
45848;SDS011;31567;54.600;9.842;2024-01-07T08:20:21;2.60;;;1.23;;
45848;SDS011;31567;54.600;9.842;2024-01-07T08:24:00;1.35;;;1.25;;
45848;SDS011;31567;54.600;9.842;2024-01-07T08:27:43;2.95;;;2.00;;
45848;SDS011;31567;54.600;9.842;2024-01-07T08:31:22;1.58;;;1.40;;
45848;SDS011;31567;54.600;9.842;2024-01-07T08:35:02;1.42;;;1.13;;
45848;SDS011;31567;54.600;9.842;2024-01-07T08:38:42;2.13;;;1.10;;
45848;SDS011;31567;54.600;9.842;2024-01-07T08:42:21;2.35;;;2.15;;
45848;SDS011;31567;54.600;9.842;2024-01-07T08:46:02;2.13;;;1.40;;
45848;SDS011;31567;54.600;9.842;2024-01-07T08:49:43;4.47;;;1.58;;
45848;SDS011;31567;54.600;9.842;2024-01-07T08:53:23;1.45;;;1.10;;
45848;SDS011;31567;54.600;9.842;2024-01-07T08:57:02;1.65;;;1.30;;
45848;SDS011;31567;54.600;9.842;2024-01-07T09:00:42;1.85;;;1.30;;
45848;SDS011;31567;54.600;9.842;2024-01-07T09:04:22;3.08;;;1.20;;
45848;SDS011;31567;54.600;9.842;2024-01-07T09:08:02;2.20;;;1.20;;
45848;SDS011;31567;54.600;9.842;2024-01-07T09:11:42;1.48;;;1.10;;
45848;SDS011;31567;54.600;9.842;2024-01-07T09:15:21;2.80;;;1.20;;
45848;SDS011;31567;54.600;9.842;2024-01-07T09:19:01;1.23;;;1.13;;
45848;SDS011;31567;54.600;9.842;2024-01-07T09:22:40;3.28;;;1.70;;
45848;SDS011;31567;54.600;9.842;2024-01-07T09:26:20;3.13;;;1.70;;
45848;SDS011;31567;54.600;9.842;2024-01-07T09:30:00;1.58;;;1.42;;
45848;SDS011;31567;54.600;9.842;2024-01-07T09:33:40;2.83;;;1.40;;
45848;SDS011;31567;54.600;9.842;2024-01-07T09:37:19;3.33;;;1.52;;
45848;SDS011;31567;54.600;9.842;2024-01-07T09:40:59;3.15;;;1.40;;
45848;SDS011;31567;54.600;9.842;2024-01-07T09:44:39;3.20;;;2.00;;
45848;SDS011;31567;54.600;9.842;2024-01-07T09:48:22;1.92;;;1.50;;
45848;SDS011;31567;54.600;9.842;2024-01-07T09:52:02;3.30;;;1.65;;
45848;SDS011;31567;54.600;9.842;2024-01-07T09:55:52;2.97;;;1.50;;
45848;SDS011;31567;54.600;9.842;2024-01-07T09:59:33;3.00;;;1.67;;
45848;SDS011;31567;54.600;9.842;2024-01-07T10:03:14;2.28;;;1.83;;
45848;SDS011;31567;54.600;9.842;2024-01-07T10:06:53;2.58;;;2.00;;
45848;SDS011;31567;54.600;9.842;2024-01-07T10:10:34;3.40;;;2.20;;
45848;SDS011;31567;54.600;9.842;2024-01-07T10:14:14;1.73;;;1.60;;
45848;SDS011;31567;54.600;9.842;2024-01-07T10:18:03;3.78;;;2.05;;
45848;SDS011;31567;54.600;9.842;2024-01-07T10:21:46;2.67;;;1.23;;
45848;SDS011;31567;54.600;9.842;2024-01-07T10:25:39;1.52;;;1.42;;
45848;SDS011;31567;54.600;9.842;2024-01-07T10:29:20;2.53;;;1.52;;
45848;SDS011;31567;54.600;9.842;2024-01-07T10:33:00;1.77;;;1.10;;
45848;SDS011;31567;54.600;9.842;2024-01-07T10:36:39;2.97;;;1.30;;
45848;SDS011;31567;54.600;9.842;2024-01-07T10:40:19;1.52;;;1.42;;
45848;SDS011;31567;54.600;9.842;2024-01-07T10:43:59;1.23;;;1.13;;
45848;SDS011;31567;54.600;9.842;2024-01-07T10:47:39;1.45;;;1.10;;
45848;SDS011;31567;54.600;9.842;2024-01-07T10:51:21;3.10;;;1.38;;
45848;SDS011;31567;54.600;9.842;2024-01-07T10:55:03;1.65;;;1.38;;
45848;SDS011;31567;54.600;9.842;2024-01-07T10:58:48;2.97;;;1.30;;
45848;SDS011;31567;54.600;9.842;2024-01-07T11:02:30;4.05;;;1.55;;
45848;SDS011;31567;54.600;9.842;2024-01-07T11:10:10;1.70;;;1.60;;
45848;SDS011;31567;54.600;9.842;2024-01-07T11:13:59;1.42;;;1.13;;
45848;SDS011;31567;54.600;9.842;2024-01-07T11:17:41;2.17;;;1.30;;
45848;SDS011;31567;54.600;9.842;2024-01-07T11:21:22;2.30;;;1.67;;
45848;SDS011;31567;54.600;9.842;2024-01-07T11:25:20;3.03;;;1.70;;
45848;SDS011;31567;54.600;9.842;2024-01-07T11:29:10;3.05;;;1.80;;
45848;SDS011;31567;54.600;9.842;2024-01-07T11:32:55;3.75;;;1.63;;
45848;SDS011;31567;54.600;9.842;2024-01-07T11:36:39;1.88;;;1.67;;
45848;SDS011;31567;54.600;9.842;2024-01-07T11:40:18;1.38;;;1.27;;
45848;SDS011;31567;54.600;9.842;2024-01-07T11:43:59;2.33;;;1.90;;
45848;SDS011;31567;54.600;9.842;2024-01-07T11:47:39;3.85;;;1.50;;
45848;SDS011;31567;54.600;9.842;2024-01-07T11:51:18;3.03;;;1.42;;
45848;SDS011;31567;54.600;9.842;2024-01-07T11:54:58;1.63;;;1.15;;
45848;SDS011;31567;54.600;9.842;2024-01-07T11:58:38;2.45;;;1.35;;
45848;SDS011;31567;54.600;9.842;2024-01-07T12:02:19;2.47;;;1.15;;
45848;SDS011;31567;54.600;9.842;2024-01-07T12:05:58;2.83;;;1.33;;
45848;SDS011;31567;54.600;9.842;2024-01-07T12:09:38;1.67;;;1.58;;
45848;SDS011;31567;54.600;9.842;2024-01-07T12:13:17;1.08;;;0.90;;
45848;SDS011;31567;54.600;9.842;2024-01-07T12:16:58;2.60;;;1.00;;
45848;SDS011;31567;54.600;9.842;2024-01-07T12:20:37;4.03;;;1.10;;
45848;SDS011;31567;54.600;9.842;2024-01-07T12:24:17;0.82;;;0.82;;
45848;SDS011;31567;54.600;9.842;2024-01-07T12:27:58;3.33;;;1.13;;
45848;SDS011;31567;54.600;9.842;2024-01-07T12:31:37;1.70;;;1.58;;
45848;SDS011;31567;54.600;9.842;2024-01-07T12:35:18;1.92;;;1.17;;
45848;SDS011;31567;54.600;9.842;2024-01-07T12:38:58;2.25;;;1.00;;
45848;SDS011;31567;54.600;9.842;2024-01-07T12:42:38;1.55;;;1.42;;
45848;SDS011;31567;54.600;9.842;2024-01-07T12:46:24;1.42;;;1.27;;
45848;SDS011;31567;54.600;9.842;2024-01-07T12:50:04;0.90;;;0.90;;
45848;SDS011;31567;54.600;9.842;2024-01-07T12:53:44;1.00;;;0.80;;
45848;SDS011;31567;54.600;9.842;2024-01-07T12:57:23;1.15;;;1.05;;
45848;SDS011;31567;54.600;9.842;2024-01-07T13:01:03;2.95;;;1.00;;
45848;SDS011;31567;54.600;9.842;2024-01-07T13:04:43;2.97;;;2.28;;
45848;SDS011;31567;54.600;9.842;2024-01-07T13:08:22;1.70;;;1.10;;
45848;SDS011;31567;54.600;9.842;2024-01-07T13:12:04;1.88;;;1.20;;
45848;SDS011;31567;54.600;9.842;2024-01-07T13:15:44;1.63;;;1.35;;
45848;SDS011;31567;54.600;9.842;2024-01-07T13:19:24;1.23;;;1.20;;
45848;SDS011;31567;54.600;9.842;2024-01-07T13:23:05;2.63;;;1.13;;
45848;SDS011;31567;54.600;9.842;2024-01-07T13:26:45;1.75;;;1.35;;
45848;SDS011;31567;54.600;9.842;2024-01-07T13:30:25;1.45;;;1.35;;
45848;SDS011;31567;54.600;9.842;2024-01-07T13:34:04;2.13;;;1.70;;
45848;SDS011;31567;54.600;9.842;2024-01-07T13:37:44;2.08;;;1.70;;
45848;SDS011;31567;54.600;9.842;2024-01-07T13:41:26;2.10;;;1.63;;
45848;SDS011;31567;54.600;9.842;2024-01-07T13:45:07;2.10;;;1.38;;
45848;SDS011;31567;54.600;9.842;2024-01-07T13:48:47;1.70;;;1.60;;
45848;SDS011;31567;54.600;9.842;2024-01-07T13:52:27;1.58;;;1.40;;
45848;SDS011;31567;54.600;9.842;2024-01-07T13:56:08;2.40;;;1.40;;
45848;SDS011;31567;54.600;9.842;2024-01-07T13:59:48;2.38;;;1.45;;
45848;SDS011;31567;54.600;9.842;2024-01-07T14:03:28;1.90;;;1.42;;
45848;SDS011;31567;54.600;9.842;2024-01-07T14:07:09;1.75;;;1.25;;
45848;SDS011;31567;54.600;9.842;2024-01-07T14:10:49;1.23;;;1.10;;
45848;SDS011;31567;54.600;9.842;2024-01-07T14:14:28;1.30;;;1.20;;
45848;SDS011;31567;54.600;9.842;2024-01-07T14:18:08;1.80;;;1.30;;
45848;SDS011;31567;54.600;9.842;2024-01-07T14:21:49;1.00;;;1.00;;
45848;SDS011;31567;54.600;9.842;2024-01-07T14:25:28;0.98;;;0.95;;
45848;SDS011;31567;54.600;9.842;2024-01-07T14:29:08;1.52;;;1.38;;
45848;SDS011;31567;54.600;9.842;2024-01-07T14:32:47;2.10;;;1.33;;
45848;SDS011;31567;54.600;9.842;2024-01-07T14:36:27;1.42;;;1.13;;
45848;SDS011;31567;54.600;9.842;2024-01-07T14:40:07;2.53;;;1.38;;
45848;SDS011;31567;54.600;9.842;2024-01-07T14:43:48;8.20;;;1.65;;
45848;SDS011;31567;54.600;9.842;2024-01-07T14:47:28;1.88;;;1.70;;
45848;SDS011;31567;54.600;9.842;2024-01-07T14:51:07;2.20;;;1.95;;
45848;SDS011;31567;54.600;9.842;2024-01-07T14:54:47;2.33;;;2.10;;
45848;SDS011;31567;54.600;9.842;2024-01-07T14:58:26;1.65;;;1.02;;
45848;SDS011;31567;54.600;9.842;2024-01-07T15:02:06;1.95;;;1.75;;
45848;SDS011;31567;54.600;9.842;2024-01-07T15:05:45;3.08;;;1.80;;
45848;SDS011;31567;54.600;9.842;2024-01-07T15:09:25;3.13;;;1.77;;
45848;SDS011;31567;54.600;9.842;2024-01-07T15:13:05;2.33;;;1.75;;
45848;SDS011;31567;54.600;9.842;2024-01-07T15:16:44;3.35;;;1.60;;
45848;SDS011;31567;54.600;9.842;2024-01-07T15:20:30;3.50;;;2.13;;
45848;SDS011;31567;54.600;9.842;2024-01-07T15:24:10;2.58;;;1.80;;
45848;SDS011;31567;54.600;9.842;2024-01-07T15:27:50;2.55;;;2.00;;
45848;SDS011;31567;54.600;9.842;2024-01-07T15:31:30;2.45;;;2.15;;
45848;SDS011;31567;54.600;9.842;2024-01-07T15:35:10;2.53;;;1.75;;
45848;SDS011;31567;54.600;9.842;2024-01-07T15:38:50;3.30;;;2.40;;
45848;SDS011;31567;54.600;9.842;2024-01-07T15:42:29;3.78;;;1.88;;
45848;SDS011;31567;54.600;9.842;2024-01-07T15:46:09;3.58;;;2.40;;
45848;SDS011;31567;54.600;9.842;2024-01-07T15:49:49;3.25;;;2.40;;
45848;SDS011;31567;54.600;9.842;2024-01-07T15:53:28;3.53;;;2.25;;
45848;SDS011;31567;54.600;9.842;2024-01-07T15:57:11;4.38;;;2.72;;
45848;SDS011;31567;54.600;9.842;2024-01-07T16:00:50;2.60;;;2.10;;
45848;SDS011;31567;54.600;9.842;2024-01-07T16:04:30;4.05;;;2.58;;
45848;SDS011;31567;54.600;9.842;2024-01-07T16:08:10;2.83;;;2.40;;
45848;SDS011;31567;54.600;9.842;2024-01-07T16:11:49;5.57;;;2.60;;
45848;SDS011;31567;54.600;9.842;2024-01-07T16:15:30;5.93;;;2.25;;
45848;SDS011;31567;54.600;9.842;2024-01-07T16:19:10;6.32;;;2.97;;
45848;SDS011;31567;54.600;9.842;2024-01-07T16:22:49;5.50;;;2.80;;
45848;SDS011;31567;54.600;9.842;2024-01-07T16:26:29;3.58;;;2.80;;
45848;SDS011;31567;54.600;9.842;2024-01-07T16:30:09;4.80;;;2.42;;
45848;SDS011;31567;54.600;9.842;2024-01-07T16:33:49;3.35;;;2.72;;
45848;SDS011;31567;54.600;9.842;2024-01-07T16:37:28;3.58;;;2.17;;
45848;SDS011;31567;54.600;9.842;2024-01-07T16:41:08;3.75;;;2.97;;
45848;SDS011;31567;54.600;9.842;2024-01-07T16:44:48;4.25;;;2.17;;
45848;SDS011;31567;54.600;9.842;2024-01-07T16:48:27;2.45;;;1.90;;
45848;SDS011;31567;54.600;9.842;2024-01-07T16:52:07;3.03;;;2.38;;
45848;SDS011;31567;54.600;9.842;2024-01-07T16:55:47;3.22;;;2.50;;
45848;SDS011;31567;54.600;9.842;2024-01-07T16:59:26;4.10;;;2.40;;
45848;SDS011;31567;54.600;9.842;2024-01-07T17:03:06;2.97;;;2.53;;
45848;SDS011;31567;54.600;9.842;2024-01-07T17:06:46;3.17;;;2.70;;
45848;SDS011;31567;54.600;9.842;2024-01-07T17:10:26;2.95;;;2.05;;
45848;SDS011;31567;54.600;9.842;2024-01-07T17:14:05;3.97;;;2.40;;
45848;SDS011;31567;54.600;9.842;2024-01-07T17:17:45;4.53;;;2.85;;
45848;SDS011;31567;54.600;9.842;2024-01-07T17:21:26;2.80;;;2.17;;
45848;SDS011;31567;54.600;9.842;2024-01-07T17:25:06;3.33;;;2.90;;
45848;SDS011;31567;54.600;9.842;2024-01-07T17:28:46;3.50;;;2.67;;
45848;SDS011;31567;54.600;9.842;2024-01-07T17:32:26;4.20;;;2.47;;
45848;SDS011;31567;54.600;9.842;2024-01-07T17:36:06;3.53;;;2.80;;
45848;SDS011;31567;54.600;9.842;2024-01-07T17:39:45;3.10;;;2.20;;
45848;SDS011;31567;54.600;9.842;2024-01-07T17:43:25;3.80;;;2.22;;
45848;SDS011;31567;54.600;9.842;2024-01-07T17:47:05;2.83;;;1.83;;
45848;SDS011;31567;54.600;9.842;2024-01-07T17:50:45;2.65;;;2.38;;
45848;SDS011;31567;54.600;9.842;2024-01-07T17:54:24;4.25;;;2.47;;
45848;SDS011;31567;54.600;9.842;2024-01-07T17:58:04;3.30;;;2.80;;
45848;SDS011;31567;54.600;9.842;2024-01-07T18:01:44;4.25;;;3.00;;
45848;SDS011;31567;54.600;9.842;2024-01-07T18:05:27;5.57;;;2.60;;
45848;SDS011;31567;54.600;9.842;2024-01-07T18:09:06;4.28;;;3.00;;
45848;SDS011;31567;54.600;9.842;2024-01-07T18:12:46;5.35;;;3.15;;
45848;SDS011;31567;54.600;9.842;2024-01-07T18:16:26;4.15;;;2.85;;
45848;SDS011;31567;54.600;9.842;2024-01-07T18:20:05;4.72;;;3.30;;
45848;SDS011;31567;54.600;9.842;2024-01-07T18:23:46;3.00;;;2.70;;
45848;SDS011;31567;54.600;9.842;2024-01-07T18:27:25;4.13;;;3.17;;
45848;SDS011;31567;54.600;9.842;2024-01-07T18:31:05;5.43;;;2.88;;
45848;SDS011;31567;54.600;9.842;2024-01-07T18:34:44;3.65;;;2.80;;
45848;SDS011;31567;54.600;9.842;2024-01-07T18:38:24;5.70;;;3.13;;
45848;SDS011;31567;54.600;9.842;2024-01-07T18:42:04;3.35;;;3.05;;
45848;SDS011;31567;54.600;9.842;2024-01-07T18:45:43;4.57;;;3.55;;
45848;SDS011;31567;54.600;9.842;2024-01-07T18:49:23;3.72;;;3.03;;
45848;SDS011;31567;54.600;9.842;2024-01-07T18:53:02;4.50;;;2.95;;
45848;SDS011;31567;54.600;9.842;2024-01-07T18:56:42;4.03;;;2.80;;
45848;SDS011;31567;54.600;9.842;2024-01-07T19:00:22;4.35;;;3.03;;
45848;SDS011;31567;54.600;9.842;2024-01-07T19:04:01;3.83;;;3.20;;
45848;SDS011;31567;54.600;9.842;2024-01-07T19:07:41;5.55;;;3.83;;
45848;SDS011;31567;54.600;9.842;2024-01-07T19:11:20;6.15;;;3.25;;
45848;SDS011;31567;54.600;9.842;2024-01-07T19:15:00;4.75;;;3.42;;
45848;SDS011;31567;54.600;9.842;2024-01-07T19:18:39;6.53;;;3.40;;
45848;SDS011;31567;54.600;9.842;2024-01-07T19:22:19;5.50;;;3.70;;
45848;SDS011;31567;54.600;9.842;2024-01-07T19:25:59;4.60;;;3.60;;
45848;SDS011;31567;54.600;9.842;2024-01-07T19:29:39;4.47;;;2.78;;
45848;SDS011;31567;54.600;9.842;2024-01-07T19:33:19;3.95;;;3.33;;
45848;SDS011;31567;54.600;9.842;2024-01-07T19:36:58;5.13;;;3.65;;
45848;SDS011;31567;54.600;9.842;2024-01-07T19:40:38;5.07;;;3.88;;
45848;SDS011;31567;54.600;9.842;2024-01-07T19:44:18;4.18;;;2.50;;
45848;SDS011;31567;54.600;9.842;2024-01-07T19:47:58;7.05;;;3.90;;
45848;SDS011;31567;54.600;9.842;2024-01-07T19:51:37;5.40;;;3.80;;
45848;SDS011;31567;54.600;9.842;2024-01-07T19:55:17;8.13;;;4.07;;
45848;SDS011;31567;54.600;9.842;2024-01-07T19:58:57;5.68;;;3.40;;
45848;SDS011;31567;54.600;9.842;2024-01-07T20:02:36;5.22;;;3.58;;
45848;SDS011;31567;54.600;9.842;2024-01-07T20:06:16;5.15;;;3.45;;
45848;SDS011;31567;54.600;9.842;2024-01-07T20:09:55;4.88;;;3.47;;
45848;SDS011;31567;54.600;9.842;2024-01-07T20:13:35;5.43;;;3.60;;
45848;SDS011;31567;54.600;9.842;2024-01-07T20:17:14;5.63;;;3.92;;
45848;SDS011;31567;54.600;9.842;2024-01-07T20:20:54;5.80;;;3.60;;
45848;SDS011;31567;54.600;9.842;2024-01-07T20:24:34;5.22;;;3.65;;
45848;SDS011;31567;54.600;9.842;2024-01-07T20:28:16;4.90;;;3.28;;
45848;SDS011;31567;54.600;9.842;2024-01-07T20:31:58;6.53;;;3.60;;
45848;SDS011;31567;54.600;9.842;2024-01-07T20:35:38;5.25;;;3.60;;
45848;SDS011;31567;54.600;9.842;2024-01-07T20:39:18;4.55;;;3.58;;
45848;SDS011;31567;54.600;9.842;2024-01-07T20:42:57;5.35;;;3.83;;
45848;SDS011;31567;54.600;9.842;2024-01-07T20:46:37;6.63;;;4.05;;
45848;SDS011;31567;54.600;9.842;2024-01-07T20:50:18;5.95;;;3.63;;
45848;SDS011;31567;54.600;9.842;2024-01-07T20:53:57;5.53;;;3.47;;
45848;SDS011;31567;54.600;9.842;2024-01-07T20:57:37;5.35;;;3.70;;
45848;SDS011;31567;54.600;9.842;2024-01-07T21:01:24;4.15;;;3.40;;
45848;SDS011;31567;54.600;9.842;2024-01-07T21:05:05;7.30;;;3.50;;
45848;SDS011;31567;54.600;9.842;2024-01-07T21:08:46;6.72;;;3.80;;
45848;SDS011;31567;54.600;9.842;2024-01-07T21:12:26;4.55;;;3.38;;
45848;SDS011;31567;54.600;9.842;2024-01-07T21:16:05;4.55;;;3.35;;
45848;SDS011;31567;54.600;9.842;2024-01-07T21:19:45;6.32;;;3.45;;
45848;SDS011;31567;54.600;9.842;2024-01-07T21:23:27;5.68;;;3.67;;
45848;SDS011;31567;54.600;9.842;2024-01-07T21:27:06;5.45;;;3.58;;
45848;SDS011;31567;54.600;9.842;2024-01-07T21:30:46;4.65;;;3.13;;
45848;SDS011;31567;54.600;9.842;2024-01-07T21:34:25;6.38;;;3.72;;
45848;SDS011;31567;54.600;9.842;2024-01-07T21:38:05;4.72;;;2.90;;
45848;SDS011;31567;54.600;9.842;2024-01-07T21:41:44;5.22;;;2.70;;
45848;SDS011;31567;54.600;9.842;2024-01-07T21:45:25;3.38;;;2.58;;
45848;SDS011;31567;54.600;9.842;2024-01-07T21:49:04;4.65;;;2.58;;
45848;SDS011;31567;54.600;9.842;2024-01-07T21:52:56;5.18;;;2.83;;
45848;SDS011;31567;54.600;9.842;2024-01-07T21:56:36;4.57;;;2.63;;
45848;SDS011;31567;54.600;9.842;2024-01-07T22:00:15;2.80;;;2.22;;
45848;SDS011;31567;54.600;9.842;2024-01-07T22:03:55;4.13;;;3.03;;
45848;SDS011;31567;54.600;9.842;2024-01-07T22:07:35;4.00;;;2.75;;
45848;SDS011;31567;54.600;9.842;2024-01-07T22:11:15;5.68;;;3.55;;